Terminal Aerodrome Forecast
Issued by NWS Sioux Falls, SD

Home | Current Version | Previous Version | Graphics & Text | Print | Product List | Glossary On
Versions: 1 2 3 4 5 6 7 8 9 10 11 12 13 14 15 16 17 18 19 20
000
FTUS43 KFSD 241453 AAB
TAFFSD
TAF AMD
KFSD 241453Z 2415/2512 32011KT P6SM OVC007
      TEMPO 2415/2416 -FZDZ
     FM241800 30009KT P6SM OVC012
     FM242200 23006KT P6SM SCT012 SCT150
     FM250300 17007KT P6SM SCT060 SCT200=

USA.gov is the U.S. government's official web portal to all federal, state and local government web resources and services.